createdAt,value
2019-03-01T00:00:35.347Z,18.34
2019-03-01T00:03:09.097Z,18.32
2019-03-01T00:05:41.251Z,18.31
2019-03-01T00:08:13.379Z,18.28
2019-03-01T00:10:45.516Z,18.27
2019-03-01T00:13:19.494Z,18.24
2019-03-01T00:15:51.623Z,18.23
2019-03-01T00:18:23.767Z,18.21
2019-03-01T00:20:55.904Z,18.20
2019-03-01T00:23:28.033Z,18.19
2019-03-01T00:26:00.187Z,18.16
2019-03-01T00:28:32.319Z,18.14
2019-03-01T00:31:04.454Z,18.13
2019-03-01T00:33:36.596Z,18.11
2019-03-01T00:36:08.727Z,18.10
2019-03-01T00:38:40.859Z,18.10
2019-03-01T00:41:12.999Z,18.07
2019-03-01T00:43:45.129Z,18.06
2019-03-01T00:46:17.284Z,18.05
2019-03-01T00:48:49.412Z,18.03
2019-03-01T00:51:22.710Z,18.03
2019-03-01T00:53:54.846Z,18.01
2019-03-01T00:56:26.975Z,18.00
2019-03-01T00:58:59.114Z,17.98
2019-03-01T01:01:31.250Z,17.98
2019-03-01T01:04:03.382Z,17.97
2019-03-01T01:06:35.842Z,17.94
2019-03-01T01:09:07.999Z,17.93
2019-03-01T01:11:40.306Z,17.93
2019-03-01T01:14:12.441Z,17.91
2019-03-01T01:16:44.590Z,17.90
2019-03-01T01:19:16.725Z,17.88
2019-03-01T01:21:48.851Z,17.88
2019-03-01T01:24:21.005Z,17.86
2019-03-01T01:26:53.129Z,17.85
2019-03-01T01:29:25.280Z,17.84
2019-03-01T01:31:57.407Z,17.83
2019-03-01T01:34:29.530Z,17.81
2019-03-01T01:37:01.952Z,17.81
2019-03-01T01:39:34.077Z,17.79
2019-03-01T01:42:06.223Z,17.78
2019-03-01T01:44:38.358Z,17.76
2019-03-01T01:47:10.480Z,17.75
2019-03-01T01:49:42.632Z,17.73
2019-03-01T01:52:14.762Z,17.72
2019-03-01T01:54:46.904Z,17.70
2019-03-01T01:57:19.051Z,17.70
2019-03-01T01:59:51.178Z,17.69
2019-03-01T02:02:23.322Z,17.67
2019-03-01T02:04:55.476Z,17.65
2019-03-01T02:07:27.610Z,17.64
2019-03-01T02:09:59.747Z,17.63
2019-03-01T02:12:31.902Z,17.62
2019-03-01T02:15:04.039Z,17.60
2019-03-01T02:17:37.765Z,17.58
2019-03-01T02:20:09.891Z,17.56
2019-03-01T02:22:42.095Z,17.55
2019-03-01T02:25:14.249Z,17.54
2019-03-01T02:27:46.374Z,17.51
2019-03-01T02:30:18.536Z,17.49
2019-03-01T02:32:50.663Z,17.47
2019-03-01T02:35:22.772Z,17.47
2019-03-01T02:37:54.925Z,17.44
2019-03-01T02:40:27.063Z,17.43
2019-03-01T02:42:59.238Z,17.41
2019-03-01T02:45:31.355Z,17.39
2019-03-01T02:48:03.496Z,17.38
2019-03-01T02:50:35.642Z,17.37
2019-03-01T02:53:07.776Z,17.35
2019-03-01T02:55:39.901Z,17.34
2019-03-01T02:58:12.050Z,17.33
2019-03-01T03:00:44.185Z,17.31
2019-03-01T03:03:16.636Z,17.30
2019-03-01T03:05:48.801Z,17.28
2019-03-01T03:08:20.934Z,17.26
2019-03-01T03:10:53.075Z,17.25
2019-03-01T03:13:25.251Z,17.23
2019-03-01T03:15:57.393Z,17.21
2019-03-01T03:18:29.521Z,17.21
2019-03-01T03:21:01.692Z,17.19
2019-03-01T03:23:33.842Z,17.17
2019-03-01T03:26:05.952Z,17.15
2019-03-01T03:28:38.107Z,17.13
2019-03-01T03:31:10.245Z,17.12
2019-03-01T03:33:42.382Z,17.10
2019-03-01T03:36:14.806Z,17.07
2019-03-01T03:38:46.933Z,17.05
2019-03-01T03:41:19.082Z,17.04
2019-03-01T03:43:51.235Z,17.02
2019-03-01T03:46:23.374Z,17.01
2019-03-01T03:48:55.504Z,16.98
2019-03-01T03:51:27.656Z,16.97
2019-03-01T03:53:59.787Z,16.96
2019-03-01T03:56:31.925Z,16.95
2019-03-01T03:59:04.076Z,16.92
2019-03-01T04:01:36.253Z,16.91
2019-03-01T04:04:08.349Z,16.89
2019-03-01T04:06:40.496Z,16.89
2019-03-01T04:09:12.628Z,16.87
2019-03-01T04:11:44.767Z,16.86
2019-03-01T04:14:16.929Z,16.84
2019-03-01T04:16:49.058Z,16.83
2019-03-01T04:19:21.214Z,16.82
2019-03-01T04:21:53.338Z,16.82
2019-03-01T04:24:25.536Z,16.81
2019-03-01T04:26:57.637Z,16.79
2019-03-01T04:29:29.771Z,16.78
2019-03-01T04:32:01.904Z,16.76
2019-03-01T04:34:34.058Z,16.76
2019-03-01T04:37:06.197Z,16.74
2019-03-01T04:39:38.329Z,16.73
2019-03-01T04:42:10.497Z,16.71
2019-03-01T04:44:42.900Z,16.69
2019-03-01T04:47:15.032Z,16.68
2019-03-01T04:49:47.184Z,16.67
2019-03-01T04:52:19.327Z,16.66
2019-03-01T04:54:51.464Z,16.64
2019-03-01T04:57:23.616Z,16.64
2019-03-01T04:59:55.757Z,16.63
2019-03-01T05:02:27.885Z,16.62
2019-03-01T05:05:00.031Z,16.60
2019-03-01T05:07:32.158Z,16.59
2019-03-01T05:10:04.290Z,16.58
2019-03-01T05:12:36.435Z,16.57
2019-03-01T05:15:08.585Z,16.56
2019-03-01T05:17:40.700Z,16.55
2019-03-01T05:20:12.848Z,16.54
2019-03-01T05:22:44.986Z,16.53
2019-03-01T05:25:17.137Z,16.52
2019-03-01T05:27:50.337Z,16.51
2019-03-01T05:30:22.478Z,16.50
2019-03-01T05:32:54.647Z,16.48
2019-03-01T05:35:26.756Z,16.48
2019-03-01T05:37:58.899Z,16.48
2019-03-01T05:40:31.030Z,16.53
2019-03-01T05:43:03.174Z,16.64
2019-03-01T05:45:35.312Z,16.82
2019-03-01T05:48:07.445Z,17.02
2019-03-01T05:50:39.579Z,17.24
2019-03-01T05:53:11.744Z,17.46
2019-03-01T05:55:43.861Z,17.67
2019-03-01T05:58:16.679Z,17.84
2019-03-01T06:00:49.019Z,18.00
2019-03-01T06:03:21.146Z,18.14
2019-03-01T06:05:53.285Z,18.22
2019-03-01T06:08:25.446Z,18.28
2019-03-01T06:10:57.605Z,18.34
2019-03-01T06:13:29.754Z,18.41
2019-03-01T06:16:01.892Z,18.47
2019-03-01T06:18:34.026Z,18.55
2019-03-01T06:21:06.173Z,18.62
2019-03-01T06:23:38.316Z,18.69
2019-03-01T06:26:10.445Z,18.78
2019-03-01T06:28:42.584Z,18.86
2019-03-01T06:31:14.721Z,18.92
2019-03-01T06:33:47.847Z,19.00
2019-03-01T06:36:19.971Z,19.05
2019-03-01T06:38:52.099Z,19.06
2019-03-01T06:41:24.249Z,19.05
2019-03-01T06:43:56.382Z,19.03
2019-03-01T06:46:28.518Z,19.02
2019-03-01T06:49:00.669Z,19.02
2019-03-01T06:51:32.805Z,19.04
2019-03-01T06:54:04.939Z,19.10
2019-03-01T06:56:37.099Z,19.17
2019-03-01T06:59:09.242Z,19.26
2019-03-01T07:01:41.386Z,19.33
2019-03-01T07:04:13.537Z,19.41
2019-03-01T07:06:45.666Z,19.51
2019-03-01T07:09:17.805Z,19.58
2019-03-01T07:11:49.932Z,19.66
2019-03-01T07:14:22.075Z,19.72
2019-03-01T07:16:54.209Z,19.77
2019-03-01T07:19:26.341Z,19.84
2019-03-01T07:21:58.480Z,19.90
2019-03-01T07:24:30.621Z,19.97
2019-03-01T07:27:02.746Z,20.02
2019-03-01T07:29:34.897Z,20.07
2019-03-01T07:32:07.033Z,20.10
2019-03-01T07:34:39.240Z,20.10
2019-03-01T07:37:11.389Z,20.09
2019-03-01T07:39:43.521Z,20.04
2019-03-01T07:42:15.654Z,19.98
2019-03-01T07:44:47.795Z,19.96
2019-03-01T07:47:19.931Z,19.95
2019-03-01T07:49:52.072Z,19.96
2019-03-01T07:52:24.220Z,20.00
2019-03-01T07:54:56.358Z,20.02
2019-03-01T07:57:28.495Z,20.05
2019-03-01T08:00:01.613Z,20.08
2019-03-01T08:02:35.887Z,20.13
2019-03-01T08:05:09.487Z,20.15
2019-03-01T08:07:41.613Z,20.17
2019-03-01T08:10:20.859Z,20.17
2019-03-01T08:12:47.874Z,20.15
2019-03-01T08:15:20.125Z,20.12
2019-03-01T08:17:52.257Z,20.05
2019-03-01T08:20:24.390Z,19.98
2019-03-01T08:22:59.465Z,19.88
2019-03-01T08:25:30.362Z,19.80
2019-03-01T08:28:02.515Z,19.71
2019-03-01T08:30:35.803Z,19.61
2019-03-01T08:33:08.019Z,19.49
2019-03-01T08:35:40.097Z,19.35
2019-03-01T08:38:12.222Z,19.23
2019-03-01T08:40:46.599Z,19.11
2019-03-01T08:43:18.203Z,18.99
2019-03-01T08:45:50.344Z,18.87
2019-03-01T08:48:22.478Z,18.76
2019-03-01T08:50:54.604Z,18.65
2019-03-01T08:53:26.756Z,18.58
2019-03-01T08:55:58.890Z,18.49
2019-03-01T08:58:31.019Z,18.41
2019-03-01T09:01:06.947Z,18.33
2019-03-01T09:03:37.058Z,18.27
2019-03-01T09:06:09.221Z,18.20
2019-03-01T09:08:42.996Z,18.13
2019-03-01T09:11:15.184Z,18.08
2019-03-01T09:13:47.316Z,18.02
2019-03-01T09:16:19.440Z,17.96
2019-03-01T09:18:51.932Z,17.92
2019-03-01T09:21:24.066Z,17.87
2019-03-01T09:23:56.199Z,17.83
2019-03-01T09:26:28.349Z,17.77
2019-03-01T09:29:00.478Z,17.74
2019-03-01T09:31:32.604Z,17.70
2019-03-01T09:34:06.191Z,17.66
2019-03-01T09:36:38.557Z,17.64
2019-03-01T09:39:10.708Z,17.60
2019-03-01T09:41:42.831Z,17.57
2019-03-01T09:44:14.954Z,17.55
2019-03-01T09:46:47.104Z,17.52
2019-03-01T09:49:21.413Z,17.49
2019-03-01T09:51:53.075Z,17.46
2019-03-01T09:54:25.212Z,17.43
2019-03-01T09:56:57.329Z,17.41
2019-03-01T09:59:30.530Z,17.38
2019-03-01T10:02:02.664Z,17.36
2019-03-01T10:04:34.794Z,17.35
2019-03-01T10:07:06.928Z,17.32
2019-03-01T10:09:39.125Z,17.29
2019-03-01T10:12:11.251Z,17.28
2019-03-01T10:14:43.398Z,17.25
2019-03-01T10:17:15.529Z,17.24
2019-03-01T10:19:47.657Z,17.24
2019-03-01T10:22:19.809Z,17.23
2019-03-01T10:24:51.948Z,17.22
2019-03-01T10:27:24.088Z,17.21
2019-03-01T10:29:56.230Z,17.20
2019-03-01T10:32:28.364Z,17.19
2019-03-01T10:35:00.492Z,17.18
2019-03-01T10:37:32.624Z,17.17
2019-03-01T10:40:04.750Z,17.15
2019-03-01T10:42:36.881Z,17.15
2019-03-01T10:45:09.010Z,17.15
2019-03-01T10:47:41.143Z,17.16
2019-03-01T10:50:13.265Z,17.15
2019-03-01T10:52:45.415Z,17.16
2019-03-01T10:55:17.575Z,17.18
2019-03-01T10:57:49.696Z,17.18
2019-03-01T11:00:21.858Z,17.18
2019-03-01T11:02:53.987Z,17.19
2019-03-01T11:05:26.116Z,17.18
2019-03-01T11:07:58.270Z,17.18
2019-03-01T11:10:30.387Z,17.17
2019-03-01T11:13:02.515Z,17.17
2019-03-01T11:15:34.675Z,17.15
2019-03-01T11:18:06.797Z,17.14
2019-03-01T11:20:38.947Z,17.14
2019-03-01T11:23:11.076Z,17.13
2019-03-01T11:25:43.203Z,17.14
2019-03-01T11:28:15.339Z,17.15
2019-03-01T11:30:47.473Z,17.17
2019-03-01T11:33:19.591Z,17.17
2019-03-01T11:35:52.040Z,17.17
2019-03-01T11:38:24.148Z,17.16
2019-03-01T11:40:56.278Z,17.15
2019-03-01T11:43:28.425Z,17.15
2019-03-01T11:46:00.811Z,17.15
2019-03-01T11:48:33.059Z,17.14
2019-03-01T11:51:05.225Z,17.15
2019-03-01T11:53:37.353Z,17.14
2019-03-01T11:56:09.475Z,17.15
2019-03-01T11:58:41.617Z,17.15
2019-03-01T12:01:17.227Z,17.17
2019-03-01T12:03:47.880Z,17.20
2019-03-01T12:06:20.006Z,17.20
2019-03-01T12:08:52.146Z,17.19
2019-03-01T12:11:24.273Z,17.20
2019-03-01T12:13:56.401Z,17.20
2019-03-01T12:16:28.542Z,17.18
2019-03-01T12:19:00.675Z,17.19
2019-03-01T12:21:32.793Z,17.19
2019-03-01T12:24:04.923Z,17.18
2019-03-01T12:26:37.043Z,17.18
2019-03-01T12:29:09.170Z,17.17
2019-03-01T12:31:41.308Z,17.16
2019-03-01T12:34:13.427Z,17.16
2019-03-01T12:36:45.551Z,17.14
2019-03-01T12:39:17.761Z,17.12
2019-03-01T12:41:50.175Z,17.11
2019-03-01T12:44:22.303Z,17.07
2019-03-01T12:46:54.456Z,17.07
2019-03-01T12:49:26.587Z,17.04
2019-03-01T12:51:58.730Z,17.03
2019-03-01T12:54:30.860Z,17.00
2019-03-01T12:57:02.981Z,16.99
2019-03-01T12:59:35.110Z,16.99
2019-03-01T13:02:07.247Z,16.97
2019-03-01T13:04:39.375Z,16.95
2019-03-01T13:07:13.238Z,16.95
2019-03-01T13:09:45.340Z,16.94
2019-03-01T13:12:17.521Z,16.92
2019-03-01T13:14:49.658Z,16.91
2019-03-01T13:17:21.799Z,16.91
2019-03-01T13:19:53.928Z,16.91
2019-03-01T13:22:27.931Z,16.90
2019-03-01T13:24:59.903Z,16.90
2019-03-01T13:27:32.027Z,16.89
2019-03-01T13:30:04.176Z,16.90
2019-03-01T13:32:36.295Z,16.87
2019-03-01T13:35:10.210Z,16.87
2019-03-01T13:37:42.259Z,16.89
2019-03-01T13:40:14.393Z,16.94
2019-03-01T13:42:47.260Z,17.07
2019-03-01T13:45:20.353Z,17.24
2019-03-01T13:47:52.516Z,17.44
2019-03-01T13:50:24.651Z,17.63
2019-03-01T13:52:56.804Z,17.83
2019-03-01T13:55:28.926Z,18.02
2019-03-01T13:58:01.060Z,18.19
2019-03-01T14:00:33.205Z,18.34
2019-03-01T14:03:05.342Z,18.47
2019-03-01T14:05:37.472Z,18.60
2019-03-01T14:08:09.635Z,18.72
2019-03-01T14:10:43.146Z,18.83
2019-03-01T14:13:15.751Z,18.91
2019-03-01T14:15:47.896Z,19.01
2019-03-01T14:18:20.023Z,19.10
2019-03-01T14:20:54.451Z,19.17
2019-03-01T14:23:26.041Z,19.25
2019-03-01T14:25:58.430Z,19.32
2019-03-01T14:28:30.552Z,19.39
2019-03-01T14:31:04.072Z,19.40
2019-03-01T14:33:36.515Z,19.39
2019-03-01T14:36:08.666Z,19.32
2019-03-01T14:38:40.797Z,19.25
2019-03-01T14:41:12.931Z,19.22
2019-03-01T14:43:45.069Z,19.22
2019-03-01T14:46:17.596Z,19.25
2019-03-01T14:48:51.039Z,19.28
2019-03-01T14:51:23.162Z,19.33
2019-03-01T14:53:55.284Z,19.41
2019-03-01T14:56:31.167Z,19.48
2019-03-01T14:59:02.339Z,19.56
2019-03-01T15:01:34.471Z,19.64
2019-03-01T15:04:06.610Z,19.72
2019-03-01T15:06:38.735Z,19.79
2019-03-01T15:09:10.891Z,19.85
2019-03-01T15:11:44.340Z,19.92
2019-03-01T15:14:17.034Z,19.98
2019-03-01T15:16:49.163Z,20.04
2019-03-01T15:19:21.292Z,20.11
2019-03-01T15:21:53.435Z,20.16
2019-03-01T15:24:25.574Z,20.21
2019-03-01T15:27:00.297Z,20.25
2019-03-01T15:29:32.236Z,20.25
2019-03-01T15:32:05.119Z,20.23
2019-03-01T15:34:37.318Z,20.17
2019-03-01T15:37:09.444Z,20.12
2019-03-01T15:39:41.576Z,20.07
2019-03-01T15:42:14.243Z,20.03
2019-03-01T15:44:47.538Z,20.02
2019-03-01T15:47:19.681Z,20.02
2019-03-01T15:49:52.479Z,20.03
2019-03-01T15:52:24.710Z,20.05
2019-03-01T15:54:56.857Z,20.08
2019-03-01T15:57:28.990Z,20.10
2019-03-01T16:00:01.116Z,20.14
2019-03-01T16:02:34.873Z,20.16
2019-03-01T16:05:07.011Z,20.20
2019-03-01T16:07:39.145Z,20.23
2019-03-01T16:10:11.291Z,20.27
2019-03-01T16:12:43.411Z,20.27
2019-03-01T16:15:15.543Z,20.24
2019-03-01T16:17:47.800Z,20.22
2019-03-01T16:20:19.883Z,20.15
2019-03-01T16:22:54.230Z,20.09
2019-03-01T16:25:25.848Z,20.03
2019-03-01T16:27:57.974Z,20.01
2019-03-01T16:30:30.100Z,19.99
2019-03-01T16:33:02.263Z,20.02
2019-03-01T16:35:34.393Z,20.05
2019-03-01T16:38:07.614Z,20.10
2019-03-01T16:40:39.754Z,20.14
2019-03-01T16:43:11.884Z,20.17
2019-03-01T16:45:44.021Z,20.15
2019-03-01T16:48:16.861Z,20.13
2019-03-01T16:50:49.783Z,20.09
2019-03-01T16:53:21.910Z,20.02
2019-03-01T16:55:54.040Z,19.95
2019-03-01T16:58:28.276Z,19.91
2019-03-01T17:01:00.014Z,19.87
2019-03-01T17:03:32.151Z,19.86
2019-03-01T17:06:04.276Z,19.86
2019-03-01T17:08:39.497Z,19.88
2019-03-01T17:11:10.248Z,19.91
2019-03-01T17:13:42.447Z,19.94
2019-03-01T17:16:14.576Z,19.95
2019-03-01T17:18:47.879Z,19.93
2019-03-01T17:21:20.720Z,19.88
2019-03-01T17:23:54.655Z,19.83
2019-03-01T17:26:29.975Z,19.79
2019-03-01T17:29:03.160Z,19.75
2019-03-01T17:31:34.540Z,19.72
2019-03-01T17:34:07.657Z,19.72
2019-03-01T17:36:39.778Z,19.71
2019-03-01T17:39:11.902Z,19.74
2019-03-01T17:41:45.603Z,19.77
2019-03-01T17:44:17.866Z,19.81
2019-03-01T17:46:50.029Z,19.83
2019-03-01T17:49:22.147Z,19.81
2019-03-01T17:51:56.559Z,19.79
2019-03-01T17:54:28.107Z,19.75
2019-03-01T17:57:00.229Z,19.69
2019-03-01T17:59:32.346Z,19.65
2019-03-01T18:02:04.485Z,19.61
2019-03-01T18:04:36.891Z,19.59
2019-03-01T18:07:09.821Z,19.59
2019-03-01T18:09:41.941Z,19.62
2019-03-01T18:12:14.088Z,19.64
2019-03-01T18:14:46.214Z,19.69
2019-03-01T18:17:18.336Z,19.70
2019-03-01T18:19:50.482Z,19.68
2019-03-01T18:22:22.990Z,19.65
2019-03-01T18:24:56.441Z,19.61
2019-03-01T18:27:28.570Z,19.57
2019-03-01T18:30:00.693Z,19.53
2019-03-01T18:32:33.097Z,19.50
2019-03-01T18:35:07.964Z,19.48
2019-03-01T18:37:39.044Z,19.48
2019-03-01T18:40:13.409Z,19.47
2019-03-01T18:42:45.180Z,19.43
2019-03-01T18:45:17.309Z,19.38
2019-03-01T18:47:49.456Z,19.32
2019-03-01T18:50:22.635Z,19.28
2019-03-01T18:52:54.756Z,19.25
2019-03-01T18:55:26.879Z,19.26
2019-03-01T18:57:59.009Z,19.25
2019-03-01T19:00:32.519Z,19.29
2019-03-01T19:03:05.479Z,19.33
2019-03-01T19:05:40.106Z,19.39
2019-03-01T19:08:11.685Z,19.43
2019-03-01T19:10:43.817Z,19.44
2019-03-01T19:13:15.948Z,19.44
2019-03-01T19:15:53.569Z,19.42
2019-03-01T19:18:21.915Z,19.37
2019-03-01T19:20:54.050Z,19.32
2019-03-01T19:23:29.297Z,19.30
2019-03-01T19:26:01.771Z,19.30
2019-03-01T19:28:34.058Z,19.31
2019-03-01T19:31:06.201Z,19.34
2019-03-01T19:33:41.430Z,19.40
2019-03-01T19:36:13.128Z,19.47
2019-03-01T19:38:46.462Z,19.49
2019-03-01T19:41:20.037Z,19.49
2019-03-01T19:43:57.471Z,19.48
2019-03-01T19:46:26.648Z,19.46
2019-03-01T19:48:58.746Z,19.40
2019-03-01T19:51:33.714Z,19.37
2019-03-01T19:54:05.782Z,19.36
2019-03-01T19:56:37.914Z,19.36
2019-03-01T19:59:10.050Z,19.38
2019-03-01T20:01:42.197Z,19.39
2019-03-01T20:04:14.326Z,19.36
2019-03-01T20:06:46.456Z,19.31
2019-03-01T20:09:18.587Z,19.26
2019-03-01T20:11:50.724Z,19.23
2019-03-01T20:14:22.856Z,19.21
2019-03-01T20:16:58.200Z,19.20
2019-03-01T20:19:28.831Z,19.21
2019-03-01T20:22:00.966Z,19.24
2019-03-01T20:24:33.088Z,19.28
2019-03-01T20:27:05.301Z,19.31
2019-03-01T20:29:37.433Z,19.31
2019-03-01T20:32:12.516Z,19.30
2019-03-01T20:34:43.401Z,19.28
2019-03-01T20:37:15.534Z,19.24
2019-03-01T20:39:50.965Z,19.22
2019-03-01T20:42:24.395Z,19.21
2019-03-01T20:44:55.324Z,19.20
2019-03-01T20:47:27.463Z,19.20
2019-03-01T20:49:59.587Z,19.19
2019-03-01T20:52:34.862Z,19.16
2019-03-01T20:55:05.561Z,19.10
2019-03-01T20:57:37.694Z,19.05
2019-03-01T21:00:09.821Z,19.04
2019-03-01T21:02:46.859Z,19.03
2019-03-01T21:05:17.417Z,19.00
2019-03-01T21:07:53.887Z,18.99
2019-03-01T21:10:23.392Z,19.00
2019-03-01T21:12:55.526Z,19.01
2019-03-01T21:15:27.655Z,19.06
2019-03-01T21:17:59.788Z,19.11
2019-03-01T21:20:31.935Z,19.15
2019-03-01T21:23:04.060Z,19.21
2019-03-01T21:25:39.744Z,19.24
2019-03-01T21:28:10.038Z,19.25
2019-03-01T21:30:42.168Z,19.24
2019-03-01T21:33:14.297Z,19.21
2019-03-01T21:35:50.795Z,19.17
2019-03-01T21:38:21.439Z,19.15
2019-03-01T21:40:53.583Z,19.13
2019-03-01T21:43:26.688Z,19.13
2019-03-01T21:45:59.816Z,19.11
2019-03-01T21:48:32.994Z,19.07
2019-03-01T21:51:05.141Z,19.00
2019-03-01T21:53:39.828Z,18.94
2019-03-01T21:56:11.121Z,18.87
2019-03-01T21:58:43.256Z,18.80
2019-03-01T22:01:15.376Z,18.73
2019-03-01T22:03:47.516Z,18.65
2019-03-01T22:06:20.599Z,18.60
2019-03-01T22:08:53.479Z,18.54
2019-03-01T22:11:25.611Z,18.47
2019-03-01T22:13:57.754Z,18.41
2019-03-01T22:16:32.716Z,18.35
2019-03-01T22:19:03.718Z,18.30
2019-03-01T22:21:35.849Z,18.24
2019-03-01T22:24:07.984Z,18.20
2019-03-01T22:26:40.108Z,18.15
2019-03-01T22:29:12.994Z,18.09
2019-03-01T22:31:45.163Z,18.04
2019-03-01T22:34:17.297Z,18.00
2019-03-01T22:36:52.894Z,17.95
2019-03-01T22:39:23.573Z,17.91
2019-03-01T22:41:55.722Z,17.87
2019-03-01T22:44:28.084Z,17.82
2019-03-01T22:47:00.907Z,17.78
2019-03-01T22:49:33.663Z,17.75
2019-03-01T22:52:05.811Z,17.71
2019-03-01T22:54:37.935Z,17.68
2019-03-01T22:57:11.041Z,17.64
2019-03-01T22:59:47.371Z,17.63
2019-03-01T23:02:20.043Z,17.59
2019-03-01T23:04:51.926Z,17.57
2019-03-01T23:07:26.446Z,17.55
2019-03-01T23:09:57.902Z,17.52
2019-03-01T23:12:30.026Z,17.48
2019-03-01T23:15:02.824Z,17.46
2019-03-01T23:17:37.350Z,17.43
2019-03-01T23:20:09.481Z,17.41
2019-03-01T23:22:42.725Z,17.38
2019-03-01T23:25:15.458Z,17.35
2019-03-01T23:27:47.605Z,17.33
2019-03-01T23:30:19.732Z,17.31
2019-03-01T23:32:52.361Z,17.28
2019-03-01T23:35:25.698Z,17.27
2019-03-01T23:37:58.890Z,17.23
2019-03-01T23:40:32.719Z,17.21
2019-03-01T23:43:04.863Z,17.19
2019-03-01T23:45:36.990Z,17.16
2019-03-01T23:48:10.611Z,17.14
2019-03-01T23:50:42.942Z,17.11
2019-03-01T23:53:15.064Z,17.10
2019-03-01T23:55:47.488Z,17.06
2019-03-01T23:58:19.642Z,17.04
